createdAt,value
2018-12-15T00:00:45.966Z,17.75
2018-12-15T00:01:46.374Z,17.75
2018-12-15T00:02:46.302Z,17.75
2018-12-15T00:03:46.132Z,17.75
2018-12-15T00:04:45.860Z,17.75
2018-12-15T00:05:45.967Z,17.75
2018-12-15T00:06:45.990Z,17.75
2018-12-15T00:07:45.982Z,17.75
2018-12-15T00:08:46.087Z,17.75
2018-12-15T00:09:45.884Z,17.75
2018-12-15T00:10:46.088Z,17.75
2018-12-15T00:11:45.923Z,17.75
2018-12-15T00:12:46.352Z,17.75
2018-12-15T00:13:46.133Z,17.75
2018-12-15T00:14:45.979Z,17.75
2018-12-15T00:15:45.753Z,17.75
2018-12-15T00:16:46.064Z,17.75
2018-12-15T00:17:46.290Z,17.75
2018-12-15T00:18:45.940Z,17.75
2018-12-15T00:19:45.958Z,17.75
2018-12-15T00:20:46.027Z,17.75
2018-12-15T00:21:45.869Z,17.75
2018-12-15T00:22:46.241Z,17.75
2018-12-15T00:23:46.209Z,17.5
2018-12-15T00:24:46.050Z,17.5
2018-12-15T00:25:46.048Z,17.5
2018-12-15T00:26:45.948Z,17.5
2018-12-15T00:27:45.924Z,17.5
2018-12-15T00:28:45.972Z,17.5
2018-12-15T00:29:46.047Z,17.5
2018-12-15T00:30:46.341Z,17.5
2018-12-15T00:31:46.004Z,17.5
2018-12-15T00:32:46.248Z,17.5
2018-12-15T00:33:46.200Z,17.5
2018-12-15T00:34:46.389Z,17.5
2018-12-15T00:35:46.111Z,17.5
2018-12-15T00:36:46.354Z,17.5
2018-12-15T00:37:45.958Z,17.5
2018-12-15T00:38:46.249Z,17.5
2018-12-15T00:39:46.236Z,17.5
2018-12-15T00:40:46.158Z,17.5
2018-12-15T00:41:46.386Z,17.5
2018-12-15T00:42:45.814Z,17.5
2018-12-15T00:43:46.198Z,17.5
2018-12-15T00:44:46.080Z,17.5
2018-12-15T00:45:46.348Z,17.5
2018-12-15T00:46:46.023Z,17.5
2018-12-15T00:47:46.892Z,17.5
2018-12-15T00:48:46.078Z,17.5
2018-12-15T00:49:46.144Z,17.5
2018-12-15T00:50:46.094Z,17.5
2018-12-15T00:51:46.252Z,17.5
2018-12-15T00:52:46.147Z,17.5
2018-12-15T00:53:45.940Z,17.5
2018-12-15T00:54:46.326Z,17.5
2018-12-15T00:55:46.046Z,17.5
2018-12-15T00:56:46.070Z,17.5
2018-12-15T00:57:46.350Z,17.5
2018-12-15T00:58:45.911Z,17.5
2018-12-15T00:59:46.197Z,17.5
2018-12-15T01:00:46.069Z,17.5
2018-12-15T01:01:46.199Z,17.5
2018-12-15T01:02:46.725Z,17.5
2018-12-15T01:03:45.898Z,17.5
2018-12-15T01:04:45.976Z,17.5
2018-12-15T01:05:45.998Z,17.5
2018-12-15T01:06:46.218Z,17.5
2018-12-15T01:07:46.032Z,17.5
2018-12-15T01:08:46.157Z,17.5
2018-12-15T01:09:46.105Z,17.5
2018-12-15T01:10:45.865Z,17.5
2018-12-15T01:11:46.433Z,17.5
2018-12-15T01:12:45.728Z,17.5
2018-12-15T01:13:45.928Z,17.5
2018-12-15T01:14:46.861Z,17.5
2018-12-15T01:15:45.858Z,17.5
2018-12-15T01:16:46.183Z,17.5
2018-12-15T01:17:45.871Z,17.5
2018-12-15T01:18:46.307Z,17.5
2018-12-15T01:19:46.349Z,17.5
2018-12-15T01:20:46.161Z,17.5
2018-12-15T01:21:45.952Z,17.5
2018-12-15T01:22:46.028Z,17.5
2018-12-15T01:23:45.996Z,17.5
2018-12-15T01:24:46.064Z,17.5
2018-12-15T01:25:45.989Z,17.5
2018-12-15T01:26:46.406Z,17.5
2018-12-15T01:27:46.373Z,17.5
2018-12-15T01:28:45.902Z,17.5
2018-12-15T01:29:45.829Z,17.5
2018-12-15T01:30:46.031Z,17.5
2018-12-15T01:31:46.091Z,17.5
2018-12-15T01:32:46.259Z,17.5
2018-12-15T01:33:46.309Z,17.5
2018-12-15T01:34:46.002Z,17.5
2018-12-15T01:35:46.423Z,17.5
2018-12-15T01:36:45.824Z,17.5
2018-12-15T01:37:46.009Z,17.5
2018-12-15T01:38:46.024Z,17.5
2018-12-15T01:39:46.252Z,17.5
2018-12-15T01:40:46.352Z,17.5
2018-12-15T01:41:46.797Z,17.5
2018-12-15T01:42:45.853Z,17.5
2018-12-15T01:43:45.804Z,17.5
2018-12-15T01:44:45.946Z,17.5
2018-12-15T01:45:45.849Z,17.5
2018-12-15T01:46:46.194Z,17.5
2018-12-15T01:47:46.000Z,17.5
2018-12-15T01:48:45.779Z,17.25
2018-12-15T01:49:45.968Z,17.5
2018-12-15T01:50:46.381Z,17.5
2018-12-15T01:51:45.936Z,17.5
2018-12-15T01:52:46.036Z,17.5
2018-12-15T01:53:46.482Z,17.5
2018-12-15T01:54:45.844Z,17.25
2018-12-15T01:55:45.954Z,17.5
2018-12-15T01:56:45.907Z,17.25
2018-12-15T01:57:45.990Z,17.25
2018-12-15T01:58:45.876Z,17.5
2018-12-15T01:59:46.110Z,17.5
2018-12-15T02:00:45.720Z,17.5
2018-12-15T02:01:45.972Z,17.5
2018-12-15T02:02:45.878Z,17.25
2018-12-15T02:03:46.116Z,17.5
2018-12-15T02:04:45.959Z,17.25
2018-12-15T02:05:45.858Z,17.5
2018-12-15T02:06:45.989Z,17.5
2018-12-15T02:07:46.041Z,17.25
2018-12-15T02:08:45.967Z,17.25
2018-12-15T02:09:46.035Z,17.5
2018-12-15T02:10:45.889Z,17.25
2018-12-15T02:11:46.026Z,17.25
2018-12-15T02:12:45.803Z,17.25
2018-12-15T02:13:45.751Z,17.25
2018-12-15T02:14:46.256Z,17.25
2018-12-15T02:15:46.209Z,17.25
2018-12-15T02:16:46.203Z,17.25
2018-12-15T02:17:46.065Z,17.25
2018-12-15T02:18:45.952Z,17.25
2018-12-15T02:19:46.443Z,17.25
2018-12-15T02:20:45.990Z,17.25
2018-12-15T02:21:45.788Z,17.25
2018-12-15T02:22:45.836Z,17.25
2018-12-15T02:23:46.283Z,17.25
2018-12-15T02:24:46.487Z,17.25
2018-12-15T02:25:45.989Z,17.25
2018-12-15T02:26:46.048Z,17.25
2018-12-15T02:27:45.912Z,17.25
2018-12-15T02:28:45.909Z,17.25
2018-12-15T02:29:46.319Z,17.25
2018-12-15T02:30:47.884Z,17.25
2018-12-15T02:31:46.150Z,17.25
2018-12-15T02:32:46.207Z,17.25
2018-12-15T02:33:45.874Z,17.25
2018-12-15T02:34:46.284Z,17.25
2018-12-15T02:35:46.224Z,17.25
2018-12-15T02:36:46.443Z,17.25
2018-12-15T02:37:45.719Z,17.25
2018-12-15T02:38:46.048Z,17.25
2018-12-15T02:39:46.630Z,17.25
2018-12-15T02:40:45.948Z,17.25
2018-12-15T02:41:47.690Z,17.25
2018-12-15T02:42:46.227Z,17.25
2018-12-15T02:43:45.913Z,17.25
2018-12-15T02:44:46.217Z,17.25
2018-12-15T02:45:45.945Z,17.25
2018-12-15T02:46:45.834Z,17.25
2018-12-15T02:47:46.158Z,17.25
2018-12-15T02:48:46.200Z,17.25
2018-12-15T02:49:46.151Z,17.25
2018-12-15T02:50:46.143Z,17.25
2018-12-15T02:51:46.165Z,17.25
2018-12-15T02:52:45.995Z,17.25
2018-12-15T02:53:46.393Z,17.25
2018-12-15T02:54:45.819Z,17.25
2018-12-15T02:55:45.970Z,17.25
2018-12-15T02:56:46.131Z,17.25
2018-12-15T02:57:46.042Z,17.25
2018-12-15T02:58:46.010Z,17.25
2018-12-15T02:59:45.949Z,17.25
2018-12-15T03:00:46.407Z,17.25
2018-12-15T03:01:46.026Z,17.25
2018-12-15T03:02:46.045Z,17.25
2018-12-15T03:03:45.870Z,17.25
2018-12-15T03:04:45.935Z,17.25
2018-12-15T03:05:46.615Z,17.25
2018-12-15T03:06:45.887Z,17.25
2018-12-15T03:07:45.980Z,17.25
2018-12-15T03:08:45.819Z,17.25
2018-12-15T03:09:45.829Z,17.25
2018-12-15T03:10:46.069Z,17.25
2018-12-15T03:11:45.840Z,17.25
2018-12-15T03:12:45.974Z,17.25
2018-12-15T03:13:45.840Z,17.25
2018-12-15T03:14:45.996Z,17.25
2018-12-15T03:15:46.219Z,17.25
2018-12-15T03:16:46.450Z,17.25
2018-12-15T03:17:49.380Z,17.25
2018-12-15T03:18:45.795Z,17.25
2018-12-15T03:19:46.266Z,17.25
2018-12-15T03:20:45.885Z,17.25
2018-12-15T03:21:46.270Z,17.25
2018-12-15T03:22:46.082Z,17.25
2018-12-15T03:23:46.124Z,17.25
2018-12-15T03:24:46.133Z,17.25
2018-12-15T03:25:46.112Z,17.25
2018-12-15T03:26:46.248Z,17.25
2018-12-15T03:27:46.102Z,17.25
2018-12-15T03:28:45.968Z,17.25
2018-12-15T03:29:46.460Z,17.25
2018-12-15T03:30:46.360Z,17.25
2018-12-15T03:31:46.071Z,17.25
2018-12-15T03:32:45.855Z,17.25
2018-12-15T03:33:45.777Z,17.25
2018-12-15T03:34:45.801Z,17.25
2018-12-15T03:35:45.861Z,17.25
2018-12-15T03:36:46.088Z,17.25
2018-12-15T03:37:45.957Z,17.25
2018-12-15T03:38:46.044Z,17.25
2018-12-15T03:39:45.812Z,17.25
2018-12-15T03:40:46.024Z,17.25
2018-12-15T03:41:45.826Z,17.25
2018-12-15T03:42:45.737Z,17.25
2018-12-15T03:43:46.063Z,17.25
2018-12-15T03:44:46.210Z,17.25
2018-12-15T03:45:45.963Z,17.25
2018-12-15T03:46:46.090Z,17.25
2018-12-15T03:47:45.951Z,17.25
2018-12-15T03:48:45.847Z,17.25
2018-12-15T03:49:45.953Z,17.25
2018-12-15T03:50:46.063Z,17.25
2018-12-15T03:51:46.464Z,17.25
2018-12-15T03:52:46.002Z,17.25
2018-12-15T03:53:46.442Z,17.25
2018-12-15T03:54:45.955Z,17.25
2018-12-15T03:55:46.422Z,17.25
2018-12-15T03:56:45.901Z,17.25
2018-12-15T03:57:46.535Z,17.25
2018-12-15T03:58:46.031Z,17.25
2018-12-15T03:59:45.915Z,17.25
2018-12-15T04:00:45.838Z,17.25
2018-12-15T04:01:45.912Z,17.25
2018-12-15T04:02:46.510Z,17.25
2018-12-15T04:03:46.171Z,17.25
2018-12-15T04:04:45.955Z,17.25
2018-12-15T04:05:46.110Z,17.25
2018-12-15T04:06:45.886Z,17.25
2018-12-15T04:07:46.109Z,17.25
2018-12-15T04:08:46.017Z,17.25
2018-12-15T04:09:45.943Z,17.25
2018-12-15T04:10:46.027Z,17.25
2018-12-15T04:11:46.280Z,17.25
2018-12-15T04:12:46.028Z,17.25
2018-12-15T04:13:45.869Z,17.25
2018-12-15T04:14:45.852Z,17.25
2018-12-15T04:15:46.154Z,17.25
2018-12-15T04:16:46.401Z,17.25
2018-12-15T04:17:46.049Z,17.25
2018-12-15T04:18:45.952Z,17.25
2018-12-15T04:19:45.820Z,17.25
2018-12-15T04:20:46.336Z,17.25
2018-12-15T04:21:46.028Z,17.25
2018-12-15T04:22:45.928Z,17.25
2018-12-15T04:23:45.963Z,17.25
2018-12-15T04:24:46.105Z,17.25
2018-12-15T04:25:45.994Z,17.25
2018-12-15T04:26:45.960Z,17.25
2018-12-15T04:27:45.724Z,17
2018-12-15T04:28:46.239Z,17.25
2018-12-15T04:29:46.145Z,17
2018-12-15T04:30:46.141Z,17.25
2018-12-15T04:31:45.944Z,17.25
2018-12-15T04:32:45.913Z,17
2018-12-15T04:33:45.796Z,17.25
2018-12-15T04:34:45.868Z,17.25
2018-12-15T04:35:46.342Z,17
2018-12-15T04:36:45.776Z,17.25
2018-12-15T04:37:46.307Z,17
2018-12-15T04:38:46.055Z,17.25
2018-12-15T04:39:46.173Z,17
2018-12-15T04:40:45.933Z,17
2018-12-15T04:41:45.782Z,17
2018-12-15T04:42:46.407Z,17
2018-12-15T04:43:45.857Z,17
2018-12-15T04:44:46.117Z,17
2018-12-15T04:45:46.639Z,17
2018-12-15T04:46:45.885Z,17
2018-12-15T04:47:46.264Z,17
2018-12-15T04:48:45.983Z,17
2018-12-15T04:49:45.952Z,17
2018-12-15T04:50:45.846Z,17
2018-12-15T04:51:45.804Z,17
2018-12-15T04:52:46.123Z,17
2018-12-15T04:53:46.045Z,17
2018-12-15T04:54:45.733Z,17
2018-12-15T04:55:45.881Z,17
2018-12-15T04:56:46.145Z,17.25
2018-12-15T04:57:46.065Z,17.25
2018-12-15T04:58:45.955Z,17
2018-12-15T04:59:46.103Z,17.25
2018-12-15T05:00:46.178Z,17.25
2018-12-15T05:01:46.256Z,17.25
2018-12-15T05:02:46.082Z,17.25
2018-12-15T05:03:45.764Z,17.25
2018-12-15T05:04:45.892Z,17.25
2018-12-15T05:05:45.829Z,17.25
2018-12-15T05:06:45.988Z,17.25
2018-12-15T05:07:46.100Z,17.25
2018-12-15T05:08:46.017Z,17.25
2018-12-15T05:09:45.841Z,17.25
2018-12-15T05:10:46.122Z,17.25
2018-12-15T05:11:46.009Z,17.25
2018-12-15T05:12:45.700Z,17.25
2018-12-15T05:13:45.971Z,17.25
2018-12-15T05:14:45.930Z,17.25
2018-12-15T05:15:45.900Z,17.25
2018-12-15T05:16:45.709Z,17.25
2018-12-15T05:17:45.882Z,17.25
2018-12-15T05:18:46.039Z,17.25
2018-12-15T05:19:45.754Z,17.25
2018-12-15T05:20:45.884Z,17.25
2018-12-15T05:21:45.743Z,17.25
2018-12-15T05:22:45.851Z,17.25
2018-12-15T05:23:46.083Z,17.25
2018-12-15T05:24:45.775Z,17.25
2018-12-15T05:25:46.534Z,17.5
2018-12-15T05:26:45.747Z,17.5
2018-12-15T05:27:46.131Z,17.5
2018-12-15T05:28:45.705Z,17.5
2018-12-15T05:29:45.925Z,17.5
2018-12-15T05:30:45.696Z,17.5
2018-12-15T05:31:46.099Z,17.5
2018-12-15T05:32:46.058Z,17.5
2018-12-15T05:33:46.096Z,17.5
2018-12-15T05:34:46.310Z,17.5
2018-12-15T05:35:46.327Z,17.5
2018-12-15T05:36:46.008Z,17.5
2018-12-15T05:37:46.221Z,17.5
2018-12-15T05:38:46.214Z,17.5
2018-12-15T05:39:46.351Z,17.5
2018-12-15T05:40:46.039Z,17.5
2018-12-15T05:41:45.911Z,17.5
2018-12-15T05:42:46.434Z,17.5
2018-12-15T05:43:45.870Z,17.75
2018-12-15T05:44:45.905Z,17.75
2018-12-15T05:45:45.677Z,17.75
2018-12-15T05:46:45.904Z,17.75
2018-12-15T05:47:45.914Z,17.75
2018-12-15T05:48:46.213Z,17.75
2018-12-15T05:49:45.848Z,17.75
2018-12-15T05:50:45.665Z,17.75
2018-12-15T05:51:45.810Z,17.75
2018-12-15T05:52:46.220Z,17.75
2018-12-15T05:53:46.455Z,17.75
2018-12-15T05:54:46.389Z,17.75
2018-12-15T05:55:45.955Z,17.75
2018-12-15T05:56:45.818Z,17.75
2018-12-15T05:57:45.657Z,17.75
2018-12-15T05:58:46.068Z,17.75
2018-12-15T05:59:45.848Z,17.75
2018-12-15T06:00:46.624Z,17.75
2018-12-15T06:01:46.205Z,17.75
2018-12-15T06:02:45.799Z,17.75
2018-12-15T06:03:46.010Z,17.75
2018-12-15T06:04:45.898Z,18
2018-12-15T06:05:45.971Z,18
2018-12-15T06:06:46.120Z,18
2018-12-15T06:07:45.762Z,18
2018-12-15T06:08:46.385Z,18
2018-12-15T06:09:46.008Z,18
2018-12-15T06:10:46.110Z,18
2018-12-15T06:11:46.288Z,18
2018-12-15T06:12:45.687Z,18
2018-12-15T06:13:46.053Z,18
2018-12-15T06:14:46.271Z,18
2018-12-15T06:15:46.485Z,18
2018-12-15T06:16:45.828Z,18
2018-12-15T06:17:46.008Z,18
2018-12-15T06:18:46.414Z,18
2018-12-15T06:19:45.997Z,18
2018-12-15T06:20:45.918Z,18
2018-12-15T06:21:46.228Z,18
2018-12-15T06:22:45.919Z,18
2018-12-15T06:23:45.742Z,18
2018-12-15T06:24:45.765Z,18
2018-12-15T06:25:45.756Z,18
2018-12-15T06:26:46.183Z,18
2018-12-15T06:27:45.596Z,18
2018-12-15T06:28:46.194Z,18
2018-12-15T06:29:45.999Z,18
2018-12-15T06:30:46.104Z,18
2018-12-15T06:31:46.177Z,18
2018-12-15T06:32:45.756Z,18
2018-12-15T06:33:46.624Z,18
2018-12-15T06:34:46.100Z,18
2018-12-15T06:35:45.964Z,18.25
2018-12-15T06:36:45.904Z,18.25
2018-12-15T06:37:45.780Z,18.25
2018-12-15T06:38:46.473Z,18.25
2018-12-15T06:39:46.857Z,18.25
2018-12-15T06:40:46.173Z,18.25
2018-12-15T06:41:46.331Z,18.25
2018-12-15T06:42:45.767Z,18.25
2018-12-15T06:43:45.825Z,18.25
2018-12-15T06:44:45.800Z,18.25
2018-12-15T06:45:46.081Z,18.25
2018-12-15T06:46:45.755Z,18.25
2018-12-15T06:47:45.779Z,18.25
2018-12-15T06:48:46.238Z,18.25
2018-12-15T06:49:45.729Z,18.25
2018-12-15T06:50:46.166Z,18.25
2018-12-15T06:51:45.913Z,18.25
2018-12-15T06:52:45.914Z,18.25
2018-12-15T06:53:45.989Z,18.25
2018-12-15T06:54:45.675Z,18.25
2018-12-15T06:55:46.059Z,18.25
2018-12-15T06:56:46.053Z,18.25
2018-12-15T06:57:45.940Z,18.25
2018-12-15T06:58:46.020Z,18.25
2018-12-15T06:59:45.743Z,18.25
2018-12-15T07:00:45.871Z,18.25
2018-12-15T07:01:45.570Z,18.25
2018-12-15T07:02:45.868Z,18.25
2018-12-15T07:03:45.718Z,18.25
2018-12-15T07:04:45.728Z,18.25
2018-12-15T07:05:46.155Z,18.25
2018-12-15T07:06:46.004Z,18.25
2018-12-15T07:07:45.860Z,18.25
2018-12-15T07:08:45.716Z,18.5
2018-12-15T07:09:46.051Z,18.25
2018-12-15T07:10:45.994Z,18.25
2018-12-15T07:11:45.848Z,18.5
2018-12-15T07:12:46.069Z,18.5
2018-12-15T07:13:46.090Z,18.5
2018-12-15T07:14:46.120Z,18.5
2018-12-15T07:15:45.783Z,18.5
2018-12-15T07:16:46.405Z,18.5
2018-12-15T07:17:46.044Z,18.5
2018-12-15T07:18:46.220Z,18.5
2018-12-15T07:19:45.983Z,18.5
2018-12-15T07:20:45.813Z,18.5
2018-12-15T07:21:45.822Z,18.5
2018-12-15T07:22:46.090Z,18.5
2018-12-15T07:23:46.195Z,18.5
2018-12-15T07:24:45.852Z,18.5
2018-12-15T07:25:45.670Z,18.5
2018-12-15T07:26:45.887Z,18.5
2018-12-15T07:27:45.708Z,18.5
2018-12-15T07:28:45.726Z,18.5
2018-12-15T07:29:46.123Z,18.5
2018-12-15T07:30:46.136Z,18.5
2018-12-15T07:31:45.802Z,18.5
2018-12-15T07:32:46.334Z,18.5
2018-12-15T07:33:45.852Z,18.5
2018-12-15T07:34:46.130Z,18.5
2018-12-15T07:35:45.706Z,18.5
2018-12-15T07:36:46.096Z,18.5
2018-12-15T07:37:45.869Z,18.5
2018-12-15T07:38:45.726Z,18.5
2018-12-15T07:39:46.065Z,18.5
2018-12-15T07:40:45.706Z,18.5
2018-12-15T07:41:45.846Z,18.5
2018-12-15T07:42:45.670Z,18.5
2018-12-15T07:43:46.129Z,18.5
2018-12-15T07:44:46.294Z,18.5
2018-12-15T07:45:45.629Z,18.5
2018-12-15T07:46:45.922Z,18.5
2018-12-15T07:47:46.601Z,18.5
2018-12-15T07:48:51.812Z,18.5
2018-12-15T07:49:46.146Z,18.5
2018-12-15T07:50:45.768Z,18.75
2018-12-15T07:51:45.883Z,18.75
2018-12-15T07:52:45.921Z,18.75
2018-12-15T07:53:46.200Z,18.75
2018-12-15T07:54:45.842Z,18.75
2018-12-15T07:55:46.088Z,18.75
2018-12-15T07:56:46.015Z,18.75
2018-12-15T07:57:46.422Z,18.75
2018-12-15T07:58:46.061Z,18.75
2018-12-15T07:59:46.233Z,18.75
2018-12-15T08:00:46.221Z,18.75
2018-12-15T08:01:45.764Z,18.75
2018-12-15T08:02:45.655Z,18.75
2018-12-15T08:03:46.013Z,18.75
2018-12-15T08:04:46.076Z,18.75
2018-12-15T08:05:46.266Z,18.75
2018-12-15T08:06:45.829Z,18.75
2018-12-15T08:07:46.054Z,18.75
2018-12-15T08:08:46.064Z,18.75
2018-12-15T08:09:45.834Z,18.75
2018-12-15T08:10:45.775Z,18.75
2018-12-15T08:11:46.270Z,18.75
2018-12-15T08:12:45.992Z,18.75
2018-12-15T08:13:46.204Z,18.75
2018-12-15T08:14:45.661Z,18.75
2018-12-15T08:15:46.046Z,18.75
2018-12-15T08:16:45.948Z,18.75
2018-12-15T08:17:45.680Z,18.75
2018-12-15T08:18:45.890Z,18.75
2018-12-15T08:19:45.601Z,18.75
2018-12-15T08:20:45.844Z,18.75
2018-12-15T08:21:45.706Z,18.75
2018-12-15T08:22:45.686Z,18.75
2018-12-15T08:23:45.907Z,18.75
2018-12-15T08:24:45.990Z,18.75
2018-12-15T08:25:46.108Z,18.75
2018-12-15T08:26:46.010Z,18.75
2018-12-15T08:27:46.118Z,18.75
2018-12-15T08:28:45.825Z,18.75
2018-12-15T08:29:45.692Z,18.75
2018-12-15T08:30:46.052Z,18.75
2018-12-15T08:31:46.293Z,18.75
2018-12-15T08:32:45.723Z,18.75
2018-12-15T08:33:46.100Z,18.75
2018-12-15T08:34:45.853Z,18.75
2018-12-15T08:35:45.888Z,18.75
2018-12-15T08:36:45.660Z,18.75
2018-12-15T08:37:45.755Z,18.75
2018-12-15T08:38:45.718Z,18.75
2018-12-15T08:39:45.761Z,18.75
2018-12-15T08:40:45.787Z,18.75
2018-12-15T08:41:45.721Z,18.75
2018-12-15T08:42:45.836Z,18.75
2018-12-15T08:43:46.003Z,18.75
2018-12-15T08:44:45.953Z,18.75
2018-12-15T08:45:45.815Z,18.75
2018-12-15T08:46:45.616Z,18.75
2018-12-15T08:47:45.975Z,18.75
2018-12-15T08:48:45.713Z,18.75
2018-12-15T08:49:45.666Z,18.75
2018-12-15T08:50:45.916Z,18.75
2018-12-15T08:51:45.870Z,18.75
2018-12-15T08:52:45.980Z,18.75
2018-12-15T08:53:45.823Z,18.75
2018-12-15T08:54:46.146Z,18.75
2018-12-15T08:55:45.728Z,18.75
2018-12-15T08:56:46.104Z,18.75
2018-12-15T08:57:45.646Z,18.75
2018-12-15T08:58:46.031Z,18.75
2018-12-15T08:59:45.628Z,18.75
2018-12-15T09:00:46.163Z,18.75
2018-12-15T09:01:45.641Z,18.75
2018-12-15T09:02:45.826Z,18.75
2018-12-15T09:03:46.064Z,18.75
2018-12-15T09:04:45.656Z,18.75
2018-12-15T09:05:45.789Z,18.75
2018-12-15T09:06:46.074Z,18.75
2018-12-15T09:07:45.859Z,18.75
2018-12-15T09:08:46.363Z,18.75
2018-12-15T09:09:46.647Z,18.75
2018-12-15T09:10:46.093Z,18.75
2018-12-15T09:11:46.047Z,19
2018-12-15T09:12:46.108Z,19
2018-12-15T09:13:46.003Z,18.75
2018-12-15T09:14:46.080Z,19
2018-12-15T09:15:45.718Z,19
2018-12-15T09:16:46.248Z,19
2018-12-15T09:17:45.826Z,19
2018-12-15T09:18:46.155Z,19
2018-12-15T09:19:45.689Z,19
2018-12-15T09:20:45.843Z,19
2018-12-15T09:21:45.740Z,19
2018-12-15T09:22:45.839Z,19
2018-12-15T09:23:45.804Z,19
2018-12-15T09:24:45.826Z,19
2018-12-15T09:25:46.145Z,19
2018-12-15T09:26:45.721Z,19
2018-12-15T09:27:46.143Z,19
2018-12-15T09:28:45.830Z,19
2018-12-15T09:29:46.069Z,19
2018-12-15T09:30:45.606Z,19
2018-12-15T09:31:45.793Z,19
2018-12-15T09:32:46.302Z,19
2018-12-15T09:33:45.981Z,19
2018-12-15T09:34:45.800Z,19
2018-12-15T09:35:45.613Z,19
2018-12-15T09:36:45.732Z,19
2018-12-15T09:37:45.844Z,19
2018-12-15T09:38:45.801Z,19
2018-12-15T09:39:45.983Z,19
2018-12-15T09:40:45.835Z,19
2018-12-15T09:41:46.068Z,19
2018-12-15T09:42:45.795Z,19
2018-12-15T09:43:45.777Z,19
2018-12-15T09:44:46.294Z,19
2018-12-15T09:45:45.707Z,19
2018-12-15T09:46:46.004Z,19
2018-12-15T09:47:46.733Z,19
2018-12-15T09:48:45.815Z,19
2018-12-15T09:49:46.132Z,19
2018-12-15T09:50:45.605Z,19
2018-12-15T09:51:45.876Z,19
2018-12-15T09:52:45.734Z,19
2018-12-15T09:53:45.741Z,19
2018-12-15T09:54:46.335Z,19
2018-12-15T09:55:45.830Z,19
2018-12-15T09:56:45.838Z,19
2018-12-15T09:57:45.815Z,19
2018-12-15T09:58:46.160Z,19
2018-12-15T09:59:45.768Z,19
2018-12-15T10:00:45.642Z,19
2018-12-15T10:01:45.854Z,19
2018-12-15T10:02:46.680Z,19
2018-12-15T10:03:45.637Z,19
2018-12-15T10:04:46.137Z,19
2018-12-15T10:05:45.581Z,19
2018-12-15T10:06:45.708Z,19
2018-12-15T10:07:45.791Z,19
2018-12-15T10:08:46.751Z,19
2018-12-15T10:09:45.605Z,19
2018-12-15T10:10:45.664Z,19
2018-12-15T10:11:45.833Z,19.25
2018-12-15T10:12:45.870Z,19.25
2018-12-15T10:13:45.704Z,19.25
2018-12-15T10:14:46.013Z,19.25
2018-12-15T10:15:45.630Z,19.25
2018-12-15T10:16:46.163Z,19.25
2018-12-15T10:17:45.965Z,19.25
2018-12-15T10:18:45.827Z,19.25
2018-12-15T10:19:45.814Z,19.25
2018-12-15T10:20:45.679Z,19.25
2018-12-15T10:21:46.210Z,19.25
2018-12-15T10:22:46.096Z,19.25
2018-12-15T10:23:45.687Z,19.25
2018-12-15T10:24:46.062Z,19.25
2018-12-15T10:25:45.744Z,19.25
2018-12-15T10:26:46.037Z,19.25
2018-12-15T10:27:46.197Z,19.25
2018-12-15T10:28:46.052Z,19.25
2018-12-15T10:29:45.787Z,19.25
2018-12-15T10:30:45.681Z,19.25
2018-12-15T10:31:46.061Z,19.25
2018-12-15T10:32:45.992Z,19.25
2018-12-15T10:33:46.086Z,19.25
2018-12-15T10:34:45.969Z,19.25
2018-12-15T10:35:46.244Z,19.25
2018-12-15T10:36:46.081Z,19.25
2018-12-15T10:37:45.706Z,19.25
2018-12-15T10:38:46.057Z,19.25
2018-12-15T10:39:45.685Z,19.25
2018-12-15T10:40:45.994Z,19.25
2018-12-15T10:41:45.565Z,19.25
2018-12-15T10:42:45.800Z,19.25
2018-12-15T10:43:45.581Z,19.25
2018-12-15T10:44:46.169Z,19.25
2018-12-15T10:45:45.734Z,19.25
2018-12-15T10:46:45.683Z,19.25
2018-12-15T10:47:45.858Z,19.25
2018-12-15T10:48:45.723Z,19.25
2018-12-15T10:49:46.016Z,19.25
2018-12-15T10:50:45.834Z,19.25
2018-12-15T10:51:45.686Z,19.25
2018-12-15T10:52:46.217Z,19.25
2018-12-15T10:53:46.146Z,19.25
2018-12-15T10:54:45.572Z,19.25
2018-12-15T10:55:46.051Z,19.25
2018-12-15T10:56:46.165Z,19.25
2018-12-15T10:57:46.656Z,19.25
2018-12-15T10:58:45.833Z,19.25
2018-12-15T10:59:46.314Z,19.25
2018-12-15T11:00:45.842Z,19.25
2018-12-15T11:01:45.723Z,19.25
2018-12-15T11:02:46.120Z,19.25
2018-12-15T11:03:46.379Z,19.25
2018-12-15T11:04:45.721Z,19.25
2018-12-15T11:05:45.669Z,19.25
2018-12-15T11:06:46.134Z,19.25
2018-12-15T11:07:46.118Z,19.5
2018-12-15T11:08:45.628Z,19.25
2018-12-15T11:09:45.675Z,19.5
2018-12-15T11:10:46.037Z,19.5
2018-12-15T11:11:46.266Z,19.5
2018-12-15T11:12:45.683Z,19.25
2018-12-15T11:13:46.570Z,19.5
2018-12-15T11:14:45.750Z,19.5
2018-12-15T11:15:45.918Z,19.5
2018-12-15T11:16:46.192Z,19.5
2018-12-15T11:17:45.667Z,19.5
2018-12-15T11:18:45.784Z,19.5
2018-12-15T11:19:45.766Z,19.5
2018-12-15T11:20:45.940Z,19.5
2018-12-15T11:21:45.822Z,19.5
2018-12-15T11:22:45.625Z,19.5
2018-12-15T11:23:46.087Z,19.5
2018-12-15T11:24:46.186Z,19.5
2018-12-15T11:25:45.791Z,19.5
2018-12-15T11:26:46.095Z,19.5
2018-12-15T11:27:45.811Z,19.5
2018-12-15T11:28:46.052Z,19.5
2018-12-15T11:29:46.617Z,19.5
2018-12-15T11:30:46.126Z,19.5
2018-12-15T11:31:46.100Z,19.5
2018-12-15T11:32:45.674Z,19.5
2018-12-15T11:33:45.741Z,19.5
2018-12-15T11:34:46.119Z,19.5
2018-12-15T11:35:45.672Z,19.5
2018-12-15T11:36:46.267Z,19.5
2018-12-15T11:37:45.775Z,19.5
2018-12-15T11:38:45.787Z,19.5
2018-12-15T11:39:45.868Z,19.5
2018-12-15T11:40:45.592Z,19.5
2018-12-15T11:41:45.792Z,19.5
2018-12-15T11:42:45.734Z,19.5
2018-12-15T11:43:45.877Z,19.5
2018-12-15T11:44:45.918Z,19.5
2018-12-15T11:45:45.778Z,19.5
2018-12-15T11:46:45.892Z,19.5
2018-12-15T11:47:45.771Z,19.5
2018-12-15T11:48:45.711Z,19.5
2018-12-15T11:49:45.955Z,19.5
2018-12-15T11:50:45.735Z,19.5
2018-12-15T11:51:45.818Z,19.5
2018-12-15T11:52:45.703Z,19.5
2018-12-15T11:53:45.807Z,19.5
2018-12-15T11:54:46.092Z,19.5
2018-12-15T11:55:45.956Z,19.5
2018-12-15T11:56:45.684Z,19.5
2018-12-15T11:57:45.970Z,19.5
2018-12-15T11:58:45.812Z,19.5
2018-12-15T11:59:46.316Z,19.5
2018-12-15T12:00:45.764Z,19.5
2018-12-15T12:01:45.941Z,19.5
2018-12-15T12:02:46.004Z,19.5
2018-12-15T12:03:45.720Z,19.5
2018-12-15T12:04:45.657Z,19.5
2018-12-15T12:05:45.847Z,19.5
2018-12-15T12:06:45.991Z,19.5
2018-12-15T12:07:45.797Z,19.5
2018-12-15T12:08:45.885Z,19.5
2018-12-15T12:09:45.795Z,19.5
2018-12-15T12:10:45.730Z,19.5
2018-12-15T12:11:46.302Z,19.5
2018-12-15T12:12:46.187Z,19.5
2018-12-15T12:13:45.885Z,19.5
2018-12-15T12:14:46.149Z,19.5
2018-12-15T12:15:45.840Z,19.5
2018-12-15T12:16:45.919Z,19.5
2018-12-15T12:17:46.042Z,19.5
2018-12-15T12:18:46.522Z,19.5
2018-12-15T12:19:50.714Z,19.5
2018-12-15T12:20:45.527Z,19.5
2018-12-15T12:21:45.946Z,19.5
2018-12-15T12:22:45.833Z,19.5
2018-12-15T12:23:45.931Z,19.5
2018-12-15T12:24:45.523Z,19.5
2018-12-15T12:25:45.870Z,19.5
2018-12-15T12:26:45.754Z,19.5
2018-12-15T12:27:46.114Z,19.5
2018-12-15T12:28:45.632Z,19.5
2018-12-15T12:29:45.785Z,19.5
2018-12-15T12:30:45.564Z,19.5
2018-12-15T12:31:45.707Z,19.5
2018-12-15T12:32:46.196Z,19.5
2018-12-15T12:33:45.710Z,19.5
2018-12-15T12:34:45.699Z,19.5
2018-12-15T12:35:45.632Z,19.5
2018-12-15T12:36:46.002Z,19.5
2018-12-15T12:37:46.437Z,19.5
2018-12-15T12:38:45.698Z,19.5
2018-12-15T12:39:45.485Z,19.5
2018-12-15T12:40:45.637Z,19.5
2018-12-15T12:41:46.018Z,19.5
2018-12-15T12:42:45.971Z,19.5
2018-12-15T12:43:45.819Z,19.5
2018-12-15T12:44:45.489Z,19.5
2018-12-15T12:45:45.758Z,19.5
2018-12-15T12:46:45.940Z,19.5
2018-12-15T12:47:45.758Z,19.5
2018-12-15T12:48:46.442Z,19.5
2018-12-15T12:49:45.893Z,19.5
2018-12-15T12:50:45.682Z,19.5
2018-12-15T12:51:45.732Z,19.5
2018-12-15T12:52:46.010Z,19.5
2018-12-15T12:53:46.624Z,19.5
2018-12-15T12:54:45.843Z,19.5
2018-12-15T12:55:45.884Z,19.5
2018-12-15T12:56:46.103Z,19.5
2018-12-15T12:57:45.774Z,19.5
2018-12-15T12:58:45.813Z,19.5
2018-12-15T12:59:45.655Z,19.5
2018-12-15T13:00:45.750Z,19.5
2018-12-15T13:01:46.020Z,19.5
2018-12-15T13:02:45.718Z,19.5
2018-12-15T13:03:45.704Z,19.5
2018-12-15T13:04:46.070Z,19.5
2018-12-15T13:05:45.822Z,19.5
2018-12-15T13:06:45.572Z,19.5
2018-12-15T13:07:45.646Z,19.5
2018-12-15T13:08:45.644Z,19.5
2018-12-15T13:09:45.787Z,19.5
2018-12-15T13:10:45.800Z,19.5
2018-12-15T13:11:45.691Z,19.5
2018-12-15T13:12:46.024Z,19.5